sensor_id;sensor_type;location;lat;lon;timestamp;pressure;altitude;pressure_sealevel;temperature;humidity
73518;BME280;61766;60.318;25.044;2023-04-28T00:01:04;101170.85;;;6.62;34.88
73518;BME280;61766;60.318;25.044;2023-04-28T00:03:30;101176.39;;;6.88;34.76
73518;BME280;61766;60.318;25.044;2023-04-28T00:05:55;101174.99;;;6.60;34.73
73518;BME280;61766;60.318;25.044;2023-04-28T00:08:20;101177.75;;;6.58;34.64
73518;BME280;61766;60.318;25.044;2023-04-28T00:10:45;101178.13;;;6.67;34.77
73518;BME280;61766;60.318;25.044;2023-04-28T00:13:11;101180.05;;;6.63;34.34
73518;BME280;61766;60.318;25.044;2023-04-28T00:15:36;101178.26;;;6.68;34.77
73518;BME280;61766;60.318;25.044;2023-04-28T00:18:01;101177.69;;;6.63;34.94
73518;BME280;61766;60.318;25.044;2023-04-28T00:20:26;101177.61;;;6.64;34.86
73518;BME280;61766;60.318;25.044;2023-04-28T00:22:51;101180.30;;;6.42;35.43
73518;BME280;61766;60.318;25.044;2023-04-28T00:25:17;101179.64;;;6.21;35.70
73518;BME280;61766;60.318;25.044;2023-04-28T00:27:42;101181.82;;;6.45;35.63
73518;BME280;61766;60.318;25.044;2023-04-28T00:30:08;101178.49;;;6.28;35.40
73518;BME280;61766;60.318;25.044;2023-04-28T00:32:32;101178.87;;;6.35;35.02
73518;BME280;61766;60.318;25.044;2023-04-28T00:34:58;101179.39;;;6.42;35.21
73518;BME280;61766;60.318;25.044;2023-04-28T00:37:23;101175.76;;;6.40;35.29
73518;BME280;61766;60.318;25.044;2023-04-28T00:39:48;101178.14;;;6.39;35.09
73518;BME280;61766;60.318;25.044;2023-04-28T00:42:14;101180.68;;;6.00;35.75
73518;BME280;61766;60.318;25.044;2023-04-28T00:44:39;101181.85;;;6.07;35.74
73518;BME280;61766;60.318;25.044;2023-04-28T00:47:04;101184.90;;;6.03;35.58
73518;BME280;61766;60.318;25.044;2023-04-28T00:49:29;101181.78;;;6.09;35.37
73518;BME280;61766;60.318;25.044;2023-04-28T00:51:54;101181.37;;;6.10;35.27
73518;BME280;61766;60.318;25.044;2023-04-28T00:54:20;101182.70;;;6.33;35.03
73518;BME280;61766;60.318;25.044;2023-04-28T00:56:45;101181.97;;;6.05;35.14
73518;BME280;61766;60.318;25.044;2023-04-28T00:59:10;101183.98;;;6.08;35.16
73518;BME280;61766;60.318;25.044;2023-04-28T01:01:35;101185.18;;;6.07;35.09
73518;BME280;61766;60.318;25.044;2023-04-28T01:04:01;101183.36;;;6.01;35.22
73518;BME280;61766;60.318;25.044;2023-04-28T01:06:26;101182.26;;;5.80;35.68
73518;BME280;61766;60.318;25.044;2023-04-28T01:08:52;101181.48;;;5.90;35.25
73518;BME280;61766;60.318;25.044;2023-04-28T01:11:17;101182.40;;;5.88;35.48
73518;BME280;61766;60.318;25.044;2023-04-28T01:13:43;101180.91;;;5.85;35.40
73518;BME280;61766;60.318;25.044;2023-04-28T01:16:09;101181.67;;;5.86;35.18
73518;BME280;61766;60.318;25.044;2023-04-28T01:18:34;101185.48;;;6.06;35.41
73518;BME280;61766;60.318;25.044;2023-04-28T01:20:59;101185.88;;;5.79;35.06
73518;BME280;61766;60.318;25.044;2023-04-28T01:23:25;101182.99;;;5.78;34.99
73518;BME280;61766;60.318;25.044;2023-04-28T01:25:50;101183.71;;;5.98;35.10
73518;BME280;61766;60.318;25.044;2023-04-28T01:28:15;101182.84;;;5.69;35.32
73518;BME280;61766;60.318;25.044;2023-04-28T01:30:41;101183.43;;;5.84;35.37
73518;BME280;61766;60.318;25.044;2023-04-28T01:33:06;101182.28;;;5.52;35.46
73518;BME280;61766;60.318;25.044;2023-04-28T01:35:31;101181.15;;;5.78;35.43
73518;BME280;61766;60.318;25.044;2023-04-28T01:37:57;101182.01;;;5.45;35.62
73518;BME280;61766;60.318;25.044;2023-04-28T01:40:22;101181.97;;;5.65;35.34
73518;BME280;61766;60.318;25.044;2023-04-28T01:42:47;101188.48;;;5.81;35.28
73518;BME280;61766;60.318;25.044;2023-04-28T01:45:12;101188.61;;;5.35;35.00
73518;BME280;61766;60.318;25.044;2023-04-28T01:47:38;101189.92;;;5.52;34.82
73518;BME280;61766;60.318;25.044;2023-04-28T01:50:04;101187.76;;;5.39;34.67
73518;BME280;61766;60.318;25.044;2023-04-28T01:52:29;101189.34;;;5.31;34.97
73518;BME280;61766;60.318;25.044;2023-04-28T01:54:55;101190.41;;;5.77;34.99
73518;BME280;61766;60.318;25.044;2023-04-28T01:57:20;101188.92;;;5.21;35.19
73518;BME280;61766;60.318;25.044;2023-04-28T01:59:45;101188.74;;;5.29;34.80
73518;BME280;61766;60.318;25.044;2023-04-28T02:02:10;101187.64;;;5.26;34.70
73518;BME280;61766;60.318;25.044;2023-04-28T02:04:37;101187.93;;;5.45;34.49
73518;BME280;61766;60.318;25.044;2023-04-28T02:07:01;101188.20;;;5.50;34.42
73518;BME280;61766;60.318;25.044;2023-04-28T02:09:26;101190.41;;;5.73;34.56
73518;BME280;61766;60.318;25.044;2023-04-28T02:11:51;101190.33;;;5.31;35.07
73518;BME280;61766;60.318;25.044;2023-04-28T02:14:17;101187.90;;;5.60;35.22
73518;BME280;61766;60.318;25.044;2023-04-28T02:16:42;101186.08;;;5.54;35.26
73518;BME280;61766;60.318;25.044;2023-04-28T02:19:07;101184.48;;;5.47;35.14
73518;BME280;61766;60.318;25.044;2023-04-28T02:21:32;101186.09;;;4.99;34.94
73518;BME280;61766;60.318;25.044;2023-04-28T02:23:58;101187.14;;;5.52;34.53
73518;BME280;61766;60.318;25.044;2023-04-28T02:26:23;101183.80;;;5.51;34.81
73518;BME280;61766;60.318;25.044;2023-04-28T02:28:48;101185.80;;;5.50;34.73
73518;BME280;61766;60.318;25.044;2023-04-28T02:31:13;101187.44;;;5.29;34.61
73518;BME280;61766;60.318;25.044;2023-04-28T02:33:39;101187.33;;;5.39;35.17
73518;BME280;61766;60.318;25.044;2023-04-28T02:36:05;101192.06;;;5.37;35.30
73518;BME280;61766;60.318;25.044;2023-04-28T02:38:29;101194.77;;;5.08;35.13
73518;BME280;61766;60.318;25.044;2023-04-28T02:40:58;101195.15;;;5.17;35.16
73518;BME280;61766;60.318;25.044;2023-04-28T02:43:20;101196.94;;;5.13;35.33
73518;BME280;61766;60.318;25.044;2023-04-28T02:45:46;101200.20;;;5.27;34.94
73518;BME280;61766;60.318;25.044;2023-04-28T02:48:11;101200.03;;;5.25;34.87
73518;BME280;61766;60.318;25.044;2023-04-28T02:50:36;101200.88;;;5.15;35.05
73518;BME280;61766;60.318;25.044;2023-04-28T02:53:02;101198.50;;;4.94;34.85
73518;BME280;61766;60.318;25.044;2023-04-28T02:55:27;101198.00;;;5.14;34.93
73518;BME280;61766;60.318;25.044;2023-04-28T02:57:53;101194.44;;;5.08;35.09
73518;BME280;61766;60.318;25.044;2023-04-28T03:00:18;101195.63;;;5.25;35.02
73518;BME280;61766;60.318;25.044;2023-04-28T03:02:43;101198.16;;;5.12;35.06
73518;BME280;61766;60.318;25.044;2023-04-28T03:05:09;101197.49;;;4.93;35.02
73518;BME280;61766;60.318;25.044;2023-04-28T03:07:34;101197.70;;;5.13;35.30
73518;BME280;61766;60.318;25.044;2023-04-28T03:09:59;101202.44;;;4.81;35.64
73518;BME280;61766;60.318;25.044;2023-04-28T03:12:24;101207.08;;;4.69;35.98
73518;BME280;61766;60.318;25.044;2023-04-28T03:14:49;101206.89;;;4.71;35.89
73518;BME280;61766;60.318;25.044;2023-04-28T03:17:15;101204.48;;;4.78;35.62
73518;BME280;61766;60.318;25.044;2023-04-28T03:19:40;101204.67;;;4.71;35.65
73518;BME280;61766;60.318;25.044;2023-04-28T03:22:05;101205.53;;;4.61;36.11
73518;BME280;61766;60.318;25.044;2023-04-28T03:24:31;101205.87;;;4.45;36.40
73518;BME280;61766;60.318;25.044;2023-04-28T03:26:56;101204.56;;;4.46;36.84
73518;BME280;61766;60.318;25.044;2023-04-28T03:29:22;101206.48;;;4.41;36.89
73518;BME280;61766;60.318;25.044;2023-04-28T03:31:47;101203.03;;;4.44;36.93
73518;BME280;61766;60.318;25.044;2023-04-28T03:34:13;101203.99;;;4.49;37.24
73518;BME280;61766;60.318;25.044;2023-04-28T03:36:38;101206.30;;;5.00;36.95
73518;BME280;61766;60.318;25.044;2023-04-28T03:39:03;101208.76;;;4.89;37.01
73518;BME280;61766;60.318;25.044;2023-04-28T03:41:29;101209.18;;;4.72;37.21
73518;BME280;61766;60.318;25.044;2023-04-28T03:43:54;101209.28;;;4.96;36.89
73518;BME280;61766;60.318;25.044;2023-04-28T03:46:20;101208.54;;;5.04;37.10
73518;BME280;61766;60.318;25.044;2023-04-28T03:48:45;101207.79;;;5.05;36.63
73518;BME280;61766;60.318;25.044;2023-04-28T03:51:11;101210.68;;;4.96;36.56
73518;BME280;61766;60.318;25.044;2023-04-28T03:53:37;101212.21;;;5.28;36.88
73518;BME280;61766;60.318;25.044;2023-04-28T03:56:02;101209.42;;;5.15;37.22
73518;BME280;61766;60.318;25.044;2023-04-28T03:58:28;101206.10;;;5.65;36.75
73518;BME280;61766;60.318;25.044;2023-04-28T04:00:53;101209.56;;;5.75;36.55
73518;BME280;61766;60.318;25.044;2023-04-28T04:03:19;101210.30;;;5.63;36.55
73518;BME280;61766;60.318;25.044;2023-04-28T04:05:44;101208.17;;;5.49;36.79
73518;BME280;61766;60.318;25.044;2023-04-28T04:08:09;101210.74;;;5.63;37.32
73518;BME280;61766;60.318;25.044;2023-04-28T04:10:35;101210.89;;;5.72;37.29
73518;BME280;61766;60.318;25.044;2023-04-28T04:13:00;101218.04;;;5.60;41.46
73518;BME280;61766;60.318;25.044;2023-04-28T04:15:25;101215.23;;;6.15;39.08
73518;BME280;61766;60.318;25.044;2023-04-28T04:17:50;101219.32;;;6.07;37.68
73518;BME280;61766;60.318;25.044;2023-04-28T04:20:16;101221.72;;;6.26;37.80
73518;BME280;61766;60.318;25.044;2023-04-28T04:22:41;101225.49;;;5.95;38.87
73518;BME280;61766;60.318;25.044;2023-04-28T04:25:07;101222.12;;;6.33;38.85
73518;BME280;61766;60.318;25.044;2023-04-28T04:27:32;101221.25;;;6.53;38.79
73518;BME280;61766;60.318;25.044;2023-04-28T04:29:57;101221.93;;;6.69;38.63
73518;BME280;61766;60.318;25.044;2023-04-28T04:32:22;101227.11;;;6.87;37.88
73518;BME280;61766;60.318;25.044;2023-04-28T04:34:48;101226.21;;;6.95;37.76
73518;BME280;61766;60.318;25.044;2023-04-28T04:37:13;101228.32;;;7.20;37.74
73518;BME280;61766;60.318;25.044;2023-04-28T04:39:39;101227.88;;;7.23;38.60
73518;BME280;61766;60.318;25.044;2023-04-28T04:42:04;101226.24;;;7.17;39.58
73518;BME280;61766;60.318;25.044;2023-04-28T04:44:30;101228.94;;;7.14;39.96
73518;BME280;61766;60.318;25.044;2023-04-28T04:46:55;101231.13;;;7.15;41.17
73518;BME280;61766;60.318;25.044;2023-04-28T04:49:20;101227.06;;;7.20;41.24
73518;BME280;61766;60.318;25.044;2023-04-28T04:51:46;101226.41;;;7.35;41.90
73518;BME280;61766;60.318;25.044;2023-04-28T04:54:11;101222.66;;;7.24;41.51
73518;BME280;61766;60.318;25.044;2023-04-28T04:56:37;101218.94;;;7.49;41.32
73518;BME280;61766;60.318;25.044;2023-04-28T04:59:02;101219.02;;;7.64;41.19
73518;BME280;61766;60.318;25.044;2023-04-28T05:01:27;101213.35;;;8.01;40.74
73518;BME280;61766;60.318;25.044;2023-04-28T05:03:53;101213.48;;;8.62;40.27
73518;BME280;61766;60.318;25.044;2023-04-28T05:06:18;101213.89;;;8.62;40.11
73518;BME280;61766;60.318;25.044;2023-04-28T05:08:44;101213.19;;;8.19;41.84
73518;BME280;61766;60.318;25.044;2023-04-28T05:11:09;101213.71;;;8.74;40.17
73518;BME280;61766;60.318;25.044;2023-04-28T05:13:34;101214.69;;;8.89;40.77
73518;BME280;61766;60.318;25.044;2023-04-28T05:15:59;101213.39;;;8.87;39.16
73518;BME280;61766;60.318;25.044;2023-04-28T05:18:25;101214.47;;;8.91;39.89
73518;BME280;61766;60.318;25.044;2023-04-28T05:20:50;101216.53;;;8.84;39.63
73518;BME280;61766;60.318;25.044;2023-04-28T05:23:16;101215.74;;;9.00;39.32
73518;BME280;61766;60.318;25.044;2023-04-28T05:25:41;101214.06;;;8.98;39.47
73518;BME280;61766;60.318;25.044;2023-04-28T05:28:07;101215.67;;;9.00;39.98
73518;BME280;61766;60.318;25.044;2023-04-28T05:30:31;101211.07;;;9.37;39.33
73518;BME280;61766;60.318;25.044;2023-04-28T05:32:57;101210.39;;;9.74;39.40
73518;BME280;61766;60.318;25.044;2023-04-28T05:35:22;101210.23;;;9.71;38.85
73518;BME280;61766;60.318;25.044;2023-04-28T05:37:47;101209.26;;;9.90;36.72
73518;BME280;61766;60.318;25.044;2023-04-28T05:40:12;101210.40;;;10.21;36.68
73518;BME280;61766;60.318;25.044;2023-04-28T05:42:38;101210.31;;;10.41;36.13
73518;BME280;61766;60.318;25.044;2023-04-28T05:45:05;101214.20;;;9.22;37.14
73518;BME280;61766;60.318;25.044;2023-04-28T05:47:28;101211.38;;;8.96;37.67
73518;BME280;61766;60.318;25.044;2023-04-28T05:49:53;101211.59;;;8.68;38.26
73518;BME280;61766;60.318;25.044;2023-04-28T05:52:19;101211.26;;;8.86;38.62
73518;BME280;61766;60.318;25.044;2023-04-28T05:54:44;101212.21;;;8.61;38.92
73518;BME280;61766;60.318;25.044;2023-04-28T05:57:10;101215.61;;;8.68;39.21
73518;BME280;61766;60.318;25.044;2023-04-28T05:59:35;101211.68;;;7.68;41.15
73518;BME280;61766;60.318;25.044;2023-04-28T06:02:00;101214.26;;;6.81;43.08
73518;BME280;61766;60.318;25.044;2023-04-28T06:04:25;101207.23;;;8.18;40.41
73518;BME280;61766;60.318;25.044;2023-04-28T06:06:51;101212.77;;;8.76;39.36
73518;BME280;61766;60.318;25.044;2023-04-28T06:09:16;101211.62;;;7.93;39.28
73518;BME280;61766;60.318;25.044;2023-04-28T06:11:41;101214.34;;;7.98;40.02
73518;BME280;61766;60.318;25.044;2023-04-28T06:14:06;101215.44;;;7.85;40.25
73518;BME280;61766;60.318;25.044;2023-04-28T06:16:32;101211.54;;;7.68;40.28
73518;BME280;61766;60.318;25.044;2023-04-28T06:18:58;101216.24;;;7.45;40.57
73518;BME280;61766;60.318;25.044;2023-04-28T06:21:23;101217.05;;;7.00;41.17
73518;BME280;61766;60.318;25.044;2023-04-28T06:23:48;101216.91;;;7.97;40.51
73518;BME280;61766;60.318;25.044;2023-04-28T06:26:14;101221.63;;;7.62;40.69
73518;BME280;61766;60.318;25.044;2023-04-28T06:28:38;101216.85;;;7.77;40.05
73518;BME280;61766;60.318;25.044;2023-04-28T06:31:04;101218.80;;;7.92;40.46
73518;BME280;61766;60.318;25.044;2023-04-28T06:33:29;101222.31;;;7.36;40.68
73518;BME280;61766;60.318;25.044;2023-04-28T06:35:54;101215.98;;;7.96;39.32
73518;BME280;61766;60.318;25.044;2023-04-28T06:38:20;101217.64;;;8.48;38.76
73518;BME280;61766;60.318;25.044;2023-04-28T06:40:45;101218.11;;;7.74;39.89
73518;BME280;61766;60.318;25.044;2023-04-28T06:43:10;101216.31;;;8.45;38.39
73518;BME280;61766;60.318;25.044;2023-04-28T06:45:36;101217.92;;;8.92;38.02
73518;BME280;61766;60.318;25.044;2023-04-28T06:48:01;101219.57;;;9.32;37.45
73518;BME280;61766;60.318;25.044;2023-04-28T06:50:27;101221.91;;;9.20;36.72
73518;BME280;61766;60.318;25.044;2023-04-28T06:52:52;101224.87;;;9.21;36.80
73518;BME280;61766;60.318;25.044;2023-04-28T06:55:17;101222.74;;;8.81;36.88
73518;BME280;61766;60.318;25.044;2023-04-28T06:57:42;101223.30;;;8.53;36.90
73518;BME280;61766;60.318;25.044;2023-04-28T07:00:08;101225.35;;;8.80;36.36
73518;BME280;61766;60.318;25.044;2023-04-28T07:02:33;101225.48;;;8.93;36.15
73518;BME280;61766;60.318;25.044;2023-04-28T07:04:58;101222.69;;;9.16;35.88
73518;BME280;61766;60.318;25.044;2023-04-28T07:07:23;101221.92;;;9.25;36.08
73518;BME280;61766;60.318;25.044;2023-04-28T07:09:49;101219.72;;;9.46;35.64
73518;BME280;61766;60.318;25.044;2023-04-28T07:12:14;101219.97;;;9.25;35.58
73518;BME280;61766;60.318;25.044;2023-04-28T07:14:39;101223.31;;;9.53;35.33
73518;BME280;61766;60.318;25.044;2023-04-28T07:17:05;101222.16;;;8.49;36.23
73518;BME280;61766;60.318;25.044;2023-04-28T07:19:30;101224.90;;;7.99;37.17
73518;BME280;61766;60.318;25.044;2023-04-28T07:21:55;101225.15;;;8.33;36.87
73518;BME280;61766;60.318;25.044;2023-04-28T07:24:20;101222.57;;;8.08;37.27
73518;BME280;61766;60.318;25.044;2023-04-28T07:26:45;101221.73;;;8.44;37.12
73518;BME280;61766;60.318;25.044;2023-04-28T07:29:11;101218.08;;;9.11;36.20
73518;BME280;61766;60.318;25.044;2023-04-28T07:31:36;101218.76;;;8.50;34.13
73518;BME280;61766;60.318;25.044;2023-04-28T07:34:01;101218.90;;;8.41;34.37
73518;BME280;61766;60.318;25.044;2023-04-28T07:36:26;101221.71;;;8.68;34.91
73518;BME280;61766;60.318;25.044;2023-04-28T07:38:51;101223.81;;;8.02;35.70
73518;BME280;61766;60.318;25.044;2023-04-28T07:41:16;101227.06;;;7.09;36.93
73518;BME280;61766;60.318;25.044;2023-04-28T07:43:41;101223.34;;;7.61;36.18
73518;BME280;61766;60.318;25.044;2023-04-28T07:46:07;101220.97;;;7.83;33.27
73518;BME280;61766;60.318;25.044;2023-04-28T07:48:32;101225.45;;;7.94;34.15
73518;BME280;61766;60.318;25.044;2023-04-28T07:50:57;101223.21;;;8.23;34.36
73518;BME280;61766;60.318;25.044;2023-04-28T07:53:22;101219.32;;;8.56;34.48
73518;BME280;61766;60.318;25.044;2023-04-28T07:55:47;101222.20;;;8.67;34.74
73518;BME280;61766;60.318;25.044;2023-04-28T07:58:12;101222.32;;;8.47;35.16
73518;BME280;61766;60.318;25.044;2023-04-28T08:00:37;101221.14;;;7.43;36.35
73518;BME280;61766;60.318;25.044;2023-04-28T08:03:02;101217.63;;;8.50;34.75
73518;BME280;61766;60.318;25.044;2023-04-28T08:05:28;101221.77;;;8.11;35.86
73518;BME280;61766;60.318;25.044;2023-04-28T08:07:54;101223.77;;;7.54;35.91
73518;BME280;61766;60.318;25.044;2023-04-28T08:10:19;101218.48;;;8.53;34.94
73518;BME280;61766;60.318;25.044;2023-04-28T08:12:44;101219.93;;;8.79;34.71
73518;BME280;61766;60.318;25.044;2023-04-28T08:15:09;101216.83;;;8.68;35.05
73518;BME280;61766;60.318;25.044;2023-04-28T08:17:35;101219.16;;;8.80;33.40
73518;BME280;61766;60.318;25.044;2023-04-28T08:20:00;101220.34;;;9.00;32.46
73518;BME280;61766;60.318;25.044;2023-04-28T08:22:25;101218.56;;;9.47;31.53
73518;BME280;61766;60.318;25.044;2023-04-28T08:24:50;101223.32;;;7.74;33.54
73518;BME280;61766;60.318;25.044;2023-04-28T08:27:15;101220.65;;;8.79;31.64
73518;BME280;61766;60.318;25.044;2023-04-28T08:29:40;101230.87;;;7.65;33.80
73518;BME280;61766;60.318;25.044;2023-04-28T08:32:06;101219.33;;;8.65;32.39
73518;BME280;61766;60.318;25.044;2023-04-28T08:34:31;101220.76;;;9.80;31.81
73518;BME280;61766;60.318;25.044;2023-04-28T08:36:56;101218.34;;;8.01;33.86
73518;BME280;61766;60.318;25.044;2023-04-28T08:39:21;101217.11;;;7.71;34.94
73518;BME280;61766;60.318;25.044;2023-04-28T08:41:46;101223.58;;;7.80;34.53
73518;BME280;61766;60.318;25.044;2023-04-28T08:44:11;101220.38;;;8.38;34.37
73518;BME280;61766;60.318;25.044;2023-04-28T08:46:39;101214.38;;;8.17;33.00
73518;BME280;61766;60.318;25.044;2023-04-28T08:49:03;101217.22;;;8.40;32.40
73518;BME280;61766;60.318;25.044;2023-04-28T08:51:32;101211.73;;;8.50;31.04
73518;BME280;61766;60.318;25.044;2023-04-28T08:53:53;101216.38;;;8.82;31.75
73518;BME280;61766;60.318;25.044;2023-04-28T08:56:16;101218.95;;;8.89;30.76
73518;BME280;61766;60.318;25.044;2023-04-28T08:58:41;101210.97;;;9.32;29.85
73518;BME280;61766;60.318;25.044;2023-04-28T09:01:07;101217.37;;;9.50;29.32
73518;BME280;61766;60.318;25.044;2023-04-28T09:03:32;101222.86;;;7.81;29.72
73518;BME280;61766;60.318;25.044;2023-04-28T09:05:56;101213.73;;;9.71;29.61
73518;BME280;61766;60.318;25.044;2023-04-28T09:08:21;101219.21;;;9.35;30.58
73518;BME280;61766;60.318;25.044;2023-04-28T09:10:46;101227.55;;;9.34;31.26
73518;BME280;61766;60.318;25.044;2023-04-28T09:15:37;101218.64;;;9.02;28.79
73518;BME280;61766;60.318;25.044;2023-04-28T09:18:04;101214.58;;;10.60;29.29
73518;BME280;61766;60.318;25.044;2023-04-28T09:20:28;101213.80;;;9.04;30.90
73518;BME280;61766;60.318;25.044;2023-04-28T09:22:53;101207.59;;;10.46;30.39
73518;BME280;61766;60.318;25.044;2023-04-28T09:25:17;101207.27;;;10.34;29.78
73518;BME280;61766;60.318;25.044;2023-04-28T09:27:42;101208.40;;;10.12;30.71
73518;BME280;61766;60.318;25.044;2023-04-28T09:30:08;101215.56;;;10.82;30.26
73518;BME280;61766;60.318;25.044;2023-04-28T09:32:32;101208.35;;;10.34;31.10
73518;BME280;61766;60.318;25.044;2023-04-28T09:34:57;101208.00;;;9.55;31.72
73518;BME280;61766;60.318;25.044;2023-04-28T09:37:23;101218.25;;;9.92;32.18
73518;BME280;61766;60.318;25.044;2023-04-28T09:39:49;101205.82;;;10.47;31.35
73518;BME280;61766;60.318;25.044;2023-04-28T09:44:37;101205.49;;;9.95;32.31
73518;BME280;61766;60.318;25.044;2023-04-28T09:49:28;101204.75;;;10.62;30.63
73518;BME280;61766;60.318;25.044;2023-04-28T09:51:53;101205.23;;;10.83;29.62
73518;BME280;61766;60.318;25.044;2023-04-28T09:54:20;101206.79;;;9.97;32.19
73518;BME280;61766;60.318;25.044;2023-04-28T09:56:46;101195.69;;;9.98;30.42
73518;BME280;61766;60.318;25.044;2023-04-28T09:59:09;101207.20;;;10.61;30.59
73518;BME280;61766;60.318;25.044;2023-04-28T10:01:36;101203.22;;;9.91;31.59
73518;BME280;61766;60.318;25.044;2023-04-28T10:04:00;101195.45;;;10.04;31.93
73518;BME280;61766;60.318;25.044;2023-04-28T10:06:24;101195.54;;;10.59;31.46
73518;BME280;61766;60.318;25.044;2023-04-28T10:08:50;101195.07;;;11.04;29.83
73518;BME280;61766;60.318;25.044;2023-04-28T10:11:14;101196.24;;;10.17;30.71
73518;BME280;61766;60.318;25.044;2023-04-28T10:13:39;101193.04;;;10.42;29.57
73518;BME280;61766;60.318;25.044;2023-04-28T10:16:06;101194.82;;;9.51;31.73
73518;BME280;61766;60.318;25.044;2023-04-28T10:18:29;101205.03;;;10.36;30.88
73518;BME280;61766;60.318;25.044;2023-04-28T10:20:58;101197.92;;;10.02;31.23
73518;BME280;61766;60.318;25.044;2023-04-28T10:25:48;101203.50;;;9.18;31.86
73518;BME280;61766;60.318;25.044;2023-04-28T10:28:09;101198.59;;;8.69;32.87
73518;BME280;61766;60.318;25.044;2023-04-28T10:30:35;101206.25;;;8.68;33.00
73518;BME280;61766;60.318;25.044;2023-04-28T10:35:39;101194.64;;;10.75;28.97
73518;BME280;61766;60.318;25.044;2023-04-28T10:38:03;101194.46;;;10.31;30.85
73518;BME280;61766;60.318;25.044;2023-04-28T10:40:30;101193.83;;;10.55;30.38
73518;BME280;61766;60.318;25.044;2023-04-28T10:42:51;101202.70;;;9.22;31.89
73518;BME280;61766;60.318;25.044;2023-04-28T10:45:06;101196.67;;;8.20;32.75
73518;BME280;61766;60.318;25.044;2023-04-28T10:50:06;101196.76;;;9.36;31.76
73518;BME280;61766;60.318;25.044;2023-04-28T10:57:15;101207.08;;;9.19;30.30
73518;BME280;61766;60.318;25.044;2023-04-28T10:59:36;101197.40;;;10.25;30.05
73518;BME280;61766;60.318;25.044;2023-04-28T11:04:26;101192.20;;;11.41;28.53
73518;BME280;61766;60.318;25.044;2023-04-28T11:16:32;101190.06;;;10.55;28.90
73518;BME280;61766;60.318;25.044;2023-04-28T11:18:58;101195.45;;;10.80;28.58
73518;BME280;61766;60.318;25.044;2023-04-28T11:21:23;101189.23;;;9.12;31.39
73518;BME280;61766;60.318;25.044;2023-04-28T11:23:47;101189.32;;;10.38;30.44
73518;BME280;61766;60.318;25.044;2023-04-28T11:26:12;101192.20;;;9.35;31.36
73518;BME280;61766;60.318;25.044;2023-04-28T11:28:46;101186.97;;;10.98;29.33
73518;BME280;61766;60.318;25.044;2023-04-28T11:31:11;101184.32;;;11.63;28.27
73518;BME280;61766;60.318;25.044;2023-04-28T11:33:27;101183.92;;;11.23;26.88
73518;BME280;61766;60.318;25.044;2023-04-28T11:35:52;101183.74;;;11.33;26.30
73518;BME280;61766;60.318;25.044;2023-04-28T11:38:17;101178.19;;;12.25;25.56
73518;BME280;61766;60.318;25.044;2023-04-28T11:40:55;101177.27;;;11.55;25.94
73518;BME280;61766;60.318;25.044;2023-04-28T11:43:09;101181.79;;;11.50;26.13
73518;BME280;61766;60.318;25.044;2023-04-28T11:45:34;101172.73;;;12.45;25.68
73518;BME280;61766;60.318;25.044;2023-04-28T11:47:59;101177.36;;;10.09;28.20
73518;BME280;61766;60.318;25.044;2023-04-28T11:52:50;101174.66;;;10.89;27.79
73518;BME280;61766;60.318;25.044;2023-04-28T11:55:16;101176.26;;;11.69;27.51
73518;BME280;61766;60.318;25.044;2023-04-28T11:57:40;101176.67;;;10.31;28.50
73518;BME280;61766;60.318;25.044;2023-04-28T12:00:12;101167.39;;;11.93;26.87
73518;BME280;61766;60.318;25.044;2023-04-28T12:02:30;101181.77;;;9.75;28.39
73518;BME280;61766;60.318;25.044;2023-04-28T12:04:55;101169.16;;;9.88;28.97
73518;BME280;61766;60.318;25.044;2023-04-28T12:07:20;101165.84;;;11.05;28.13
73518;BME280;61766;60.318;25.044;2023-04-28T12:09:47;101176.84;;;10.40;28.54
73518;BME280;61766;60.318;25.044;2023-04-28T12:12:11;101173.38;;;10.43;28.28
73518;BME280;61766;60.318;25.044;2023-04-28T12:17:00;101175.97;;;9.07;29.47
73518;BME280;61766;60.318;25.044;2023-04-28T12:19:25;101181.80;;;9.13;29.88
73518;BME280;61766;60.318;25.044;2023-04-28T12:22:00;101171.67;;;10.35;29.45
73518;BME280;61766;60.318;25.044;2023-04-28T12:24:17;101168.79;;;10.94;28.21
73518;BME280;61766;60.318;25.044;2023-04-28T12:26:40;101174.53;;;10.53;28.47
73518;BME280;61766;60.318;25.044;2023-04-28T12:29:05;101176.37;;;9.72;29.72
73518;BME280;61766;60.318;25.044;2023-04-28T12:31:30;101173.84;;;10.08;28.80
73518;BME280;61766;60.318;25.044;2023-04-28T12:33:55;101170.27;;;10.23;29.16
73518;BME280;61766;60.318;25.044;2023-04-28T12:36:20;101182.40;;;9.13;29.89
73518;BME280;61766;60.318;25.044;2023-04-28T12:38:47;101174.58;;;9.58;29.67
73518;BME280;61766;60.318;25.044;2023-04-28T12:41:11;101173.09;;;9.16;29.10
73518;BME280;61766;60.318;25.044;2023-04-28T12:43:36;101170.98;;;9.41;29.62
73518;BME280;61766;60.318;25.044;2023-04-28T12:46:01;101174.67;;;9.88;29.37
73518;BME280;61766;60.318;25.044;2023-04-28T12:48:27;101165.17;;;10.24;29.02
73518;BME280;61766;60.318;25.044;2023-04-28T12:50:52;101165.44;;;9.80;28.98
73518;BME280;61766;60.318;25.044;2023-04-28T12:53:17;101171.09;;;9.56;29.22
73518;BME280;61766;60.318;25.044;2023-04-28T12:55:42;101169.81;;;9.00;29.91
73518;BME280;61766;60.318;25.044;2023-04-28T12:58:07;101159.02;;;10.35;26.99
73518;BME280;61766;60.318;25.044;2023-04-28T13:00:32;101162.26;;;10.62;26.00
73518;BME280;61766;60.318;25.044;2023-04-28T13:02:58;101158.30;;;11.02;26.13
73518;BME280;61766;60.318;25.044;2023-04-28T13:05:23;101161.14;;;11.14;25.76
73518;BME280;61766;60.318;25.044;2023-04-28T13:07:48;101160.14;;;10.09;25.51
73518;BME280;61766;60.318;25.044;2023-04-28T13:10:13;101159.03;;;11.11;24.48
73518;BME280;61766;60.318;25.044;2023-04-28T13:12:38;101156.53;;;11.50;24.64